Time;durP1;ratioP1;P1;durP2;ratioP2;P2;SDS_P1;SDS_P2;PMS_P1;PMS_P2;Temp;Humidity;BMP_temperature;BMP_pressure;BME280_temperature;BME280_humidity;BME280_pressure;Samples;Min_cycle;Max_cycle;Signal;HPM_P1;HPM_P2
2022/09/27 00:01:19;;;;;;;;;;;11.60;99.90;;;;;;5022443;28;20051;-85
2022/09/27 00:03:44;;;;;;;;;;;11.60;99.90;;;;;;5020894;28;20052;-86
2022/09/27 00:06:12;;;;;;;;;;;11.60;99.90;;;;;;5037002;28;20384;-86
2022/09/27 00:08:38;;;;;;;;;;;11.50;99.90;;;;;;4999691;28;19909;-85
2022/09/27 00:11:05;;;;;;;;;;;11.60;99.90;;;;;;5015562;28;19917;-84
2022/09/27 00:13:30;;;;;;;;;;;11.50;99.90;;;;;;5015822;28;19928;-86
2022/09/27 00:15:57;;;;;;;;;;;11.50;99.90;;;;;;5015697;28;20301;-84
2022/09/27 00:18:22;;;;;;;;;;;11.50;99.90;;;;;;5016004;28;19909;-84
2022/09/27 00:20:48;;;;;;;;;;;11.40;99.90;;;;;;5015806;28;19909;-86
2022/09/27 00:23:13;;;;;;;;;;;11.50;99.90;;;;;;5016583;28;19968;-86
2022/09/27 00:25:39;;;;;;;;;;;11.50;99.90;;;;;;5031474;28;19910;-84
2022/09/27 00:28:04;;;;;;;;;;;11.50;99.90;;;;;;5015490;28;20265;-84
2022/09/27 00:30:30;;;;;;;;;;;11.50;99.90;;;;;;5016031;28;19961;-85
2022/09/27 00:32:55;;;;;;;;;;;11.40;99.90;;;;;;5035214;28;19996;-85
2022/09/27 00:35:21;;;;;;;;;;;11.40;99.90;;;;;;5019838;28;19913;-86
2022/09/27 00:37:49;;;;;;;;;;;11.40;99.90;;;;;;5018368;28;19909;-86
2022/09/27 00:40:15;;;;;;;;;;;11.40;99.90;;;;;;5015113;28;19917;-85
2022/09/27 00:42:40;;;;;;;;;;;11.40;99.90;;;;;;5015006;28;19910;-86
2022/09/27 00:45:12;;;;;;;;;;;11.40;99.90;;;;;;5016031;28;19910;-86
2022/09/27 00:47:50;;;;;;;;;;;11.40;99.90;;;;;;5014595;28;20008;-85
2022/09/27 00:50:21;;;;;;;;;;;11.40;99.90;;;;;;4998475;28;20308;-86
2022/09/27 00:52:54;;;;;;;;;;;11.40;99.90;;;;;;5016539;28;20550;-84
2022/09/27 00:55:24;;;;;;;;;;;11.40;99.90;;;;;;4998631;28;19971;-86
2022/09/27 00:57:50;;;;;;;;;;;11.40;99.90;;;;;;5014440;28;19909;-86
2022/09/27 01:00:16;;;;;;;;;;;11.40;99.90;;;;;;5014511;28;20426;-86
2022/09/27 01:02:53;;;;;;;;;;;11.40;99.90;;;;;;5014613;28;19916;-86
2022/09/27 01:05:21;;;;;;;;;;;11.40;99.90;;;;;;5015873;28;20390;-85
2022/09/27 01:07:47;;;;;;;;;;;11.40;99.90;;;;;;5016227;28;20012;-84
2022/09/27 01:10:13;;;;;;;;;;;11.40;99.90;;;;;;5015007;28;20357;-85
2022/09/27 01:12:51;;;;;;;;;;;11.30;99.90;;;;;;5019371;28;19954;-84
2022/09/27 01:15:22;;;;;;;;;;;11.20;99.90;;;;;;5037009;28;19956;-85
2022/09/27 01:17:47;;;;;;;;;;;11.20;99.90;;;;;;5022350;28;19921;-85
2022/09/27 01:20:35;;;;;;;;;;;11.20;99.90;;;;;;5037349;28;20316;-84
2022/09/27 01:23:16;;;;;;;;;;;11.20;99.90;;;;;;5021548;28;19932;-85
2022/09/27 01:26:00;;;;;;;;;;;11.10;99.90;;;;;;4997532;28;19965;-85
2022/09/27 01:28:44;;;;;;;;;;;11.00;99.90;;;;;;5016574;28;20055;-85
2022/09/27 01:31:13;;;;;;;;;;;11.00;99.90;;;;;;5016931;28;20288;-85
2022/09/27 01:33:43;;;;;;;;;;;11.10;99.90;;;;;;5032283;28;20369;-85
2022/09/27 01:36:28;;;;;;;;;;;11.10;99.90;;;;;;5015646;28;20055;-85
2022/09/27 01:38:55;;;;;;;;;;;11.20;99.90;;;;;;5019931;28;20025;-85
2022/09/27 01:41:39;;;;;;;;;;;11.20;99.90;;;;;;5038162;28;19917;-84
2022/09/27 01:44:09;;;;;;;;;;;11.20;99.90;;;;;;5022280;28;19916;-85
2022/09/27 01:46:40;;;;;;;;;;;11.20;99.90;;;;;;5020775;28;20518;-85
2022/09/27 01:49:12;;;;;;;;;;;11.20;99.90;;;;;;5014182;28;19917;-86
2022/09/27 01:51:41;;;;;;;;;;;11.10;99.90;;;;;;5013541;28;19914;-85
2022/09/27 01:54:08;;;;;;;;;;;11.10;99.90;;;;;;5013443;28;19913;-86
2022/09/27 01:56:36;;;;;;;;;;;11.00;99.90;;;;;;5013268;28;19920;-86
2022/09/27 01:59:05;;;;;;;;;;;11.10;99.90;;;;;;5017615;28;20352;-85
2022/09/27 02:01:32;;;;;;;;;;;11.10;99.90;;;;;;5023863;28;20378;-85
2022/09/27 02:04:00;;;;;;;;;;;11.10;99.90;;;;;;5022288;28;19985;-84
2022/09/27 02:06:33;;;;;;;;;;;11.20;99.90;;;;;;5021524;28;19910;-85
2022/09/27 02:09:02;;;;;;;;;;;11.20;99.90;;;;;;5022532;28;19914;-84
2022/09/27 02:11:28;;;;;;;;;;;11.20;99.90;;;;;;5005041;28;19920;-85
2022/09/27 02:14:07;;;;;;;;;;;11.20;99.90;;;;;;5018174;28;19910;-85
2022/09/27 02:16:37;;;;;;;;;;;11.10;99.90;;;;;;5015314;28;19957;-85
2022/09/27 02:19:06;;;;;;;;;;;11.10;99.90;;;;;;5004199;28;19909;-84
2022/09/27 02:21:39;;;;;;;;;;;11.00;99.90;;;;;;5037584;28;19909;-84
2022/09/27 02:24:07;;;;;;;;;;;11.00;99.90;;;;;;5034121;28;19909;-85
2022/09/27 02:26:40;;;;;;;;;;;11.00;99.90;;;;;;5013025;28;19910;-85
2022/09/27 02:29:05;;;;;;;;;;;11.00;99.90;;;;;;5020986;28;20369;-85
2022/09/27 02:31:30;;;;;;;;;;;11.00;99.90;;;;;;5036627;28;19909;-84
2022/09/27 02:34:01;;;;;;;;;;;11.00;99.90;;;;;;5020027;28;20428;-84
2022/09/27 02:36:27;;;;;;;;;;;11.20;99.90;;;;;;5019426;28;19913;-84
2022/09/27 02:38:52;;;;;;;;;;;11.10;99.90;;;;;;5018644;28;20007;-85
2022/09/27 02:41:19;;;;;;;;;;;11.10;99.90;;;;;;5017663;28;20285;-86
2022/09/27 02:43:47;;;;;;;;;;;11.10;99.90;;;;;;5013801;28;19955;-84
2022/09/27 02:46:33;;;;;;;;;;;11.10;99.90;;;;;;5013692;28;19910;-84
2022/09/27 02:48:59;;;;;;;;;;;11.10;99.90;;;;;;4996338;28;20348;-85
2022/09/27 02:51:45;;;;;;;;;;;11.10;99.90;;;;;;5029219;28;19909;-85
2022/09/27 02:54:17;;;;;;;;;;;11.10;99.90;;;;;;5014369;28;19964;-85
2022/09/27 02:57:05;;;;;;;;;;;11.10;99.90;;;;;;4996820;28;19914;-85
2022/09/27 02:59:31;;;;;;;;;;;11.00;99.90;;;;;;5012310;28;20004;-85
2022/09/27 03:02:04;;;;;;;;;;;11.10;99.90;;;;;;5029308;28;20364;-83
2022/09/27 03:04:48;;;;;;;;;;;11.10;99.90;;;;;;4996416;28;20354;-83
2022/09/27 03:07:14;;;;;;;;;;;11.10;99.90;;;;;;5012776;28;19993;-84
2022/09/27 03:09:44;;;;;;;;;;;11.10;99.90;;;;;;5012819;28;19948;-83
2022/09/27 03:12:10;;;;;;;;;;;11.10;99.90;;;;;;5012755;28;20000;-84
2022/09/27 03:14:35;;;;;;;;;;;11.10;99.90;;;;;;5012624;28;19952;-83
2022/09/27 03:17:01;;;;;;;;;;;11.10;99.90;;;;;;5012364;28;19913;-85
2022/09/27 03:19:27;;;;;;;;;;;11.00;99.90;;;;;;5013976;28;19913;-84
2022/09/27 03:21:52;;;;;;;;;;;11.00;99.90;;;;;;5029145;28;19916;-84
2022/09/27 03:24:18;;;;;;;;;;;10.90;99.90;;;;;;5019845;28;19909;-83
2022/09/27 03:26:43;;;;;;;;;;;10.90;99.90;;;;;;5019657;28;19940;-84
2022/09/27 03:29:09;;;;;;;;;;;10.90;99.90;;;;;;5029571;28;19911;-84
2022/09/27 03:31:34;;;;;;;;;;;10.90;99.90;;;;;;5012859;28;19917;-84
2022/09/27 03:33:59;;;;;;;;;;;10.80;99.90;;;;;;5012833;28;19914;-85
2022/09/27 03:36:26;;;;;;;;;;;10.80;99.90;;;;;;5012434;28;20008;-85
2022/09/27 03:38:51;;;;;;;;;;;10.70;99.90;;;;;;5012674;28;19945;-84
2022/09/27 03:41:17;;;;;;;;;;;10.60;99.90;;;;;;5029821;28;19966;-84
2022/09/27 03:43:42;;;;;;;;;;;10.60;99.90;;;;;;5022507;28;19910;-84
2022/09/27 03:46:08;;;;;;;;;;;10.50;99.90;;;;;;5023893;28;19921;-84
2022/09/27 03:48:33;;;;;;;;;;;10.50;99.90;;;;;;5019062;28;20369;-84
2022/09/27 03:50:59;;;;;;;;;;;10.40;99.90;;;;;;5012433;28;19971;-84
2022/09/27 03:53:24;;;;;;;;;;;10.40;99.90;;;;;;4996200;28;19960;-85
2022/09/27 03:55:50;;;;;;;;;;;10.40;99.90;;;;;;4995558;28;19913;-83
2022/09/27 03:58:15;;;;;;;;;;;10.30;99.90;;;;;;4998768;28;20444;-85
2022/09/27 04:00:42;;;;;;;;;;;10.30;99.90;;;;;;4995331;28;19909;-85
2022/09/27 04:03:08;;;;;;;;;;;10.30;99.90;;;;;;4995117;28;19940;-85
2022/09/27 04:05:33;;;;;;;;;;;10.30;99.90;;;;;;4995541;28;20419;-86
2022/09/27 04:07:59;;;;;;;;;;;10.20;99.90;;;;;;4995977;28;19913;-84
2022/09/27 04:10:25;;;;;;;;;;;10.20;99.90;;;;;;4995608;28;19964;-84
2022/09/27 04:12:50;;;;;;;;;;;10.20;99.90;;;;;;4996057;28;19916;-84
2022/09/27 04:15:16;;;;;;;;;;;10.10;99.90;;;;;;4997122;28;19909;-84
2022/09/27 04:17:42;;;;;;;;;;;10.10;99.90;;;;;;5009738;28;19932;-85
2022/09/27 04:20:08;;;;;;;;;;;10.10;99.90;;;;;;5011192;28;19920;-84
2022/09/27 04:22:33;;;;;;;;;;;10.10;99.90;;;;;;5009154;28;19960;-84
2022/09/27 04:24:59;;;;;;;;;;;10.10;99.90;;;;;;5009783;28;19914;-84
2022/09/27 04:27:24;;;;;;;;;;;10.10;99.90;;;;;;5025506;28;19918;-85
2022/09/27 04:29:50;;;;;;;;;;;10.10;99.90;;;;;;5018229;28;19935;-85
2022/09/27 04:32:15;;;;;;;;;;;10.10;99.90;;;;;;5006434;28;19909;-85
2022/09/27 04:37:25;;;;;;;;;;;10.10;99.90;;;;;;5012470;28;20009;-84
2022/09/27 04:39:51;;;;;;;;;;;10.10;99.90;;;;;;5012638;28;20352;-85
2022/09/27 04:42:17;;;;;;;;;;;10.10;99.90;;;;;;4994996;28;19953;-85
2022/09/27 04:44:43;;;;;;;;;;;10.00;99.90;;;;;;4994895;28;19910;-85
2022/09/27 04:47:08;;;;;;;;;;;10.00;99.90;;;;;;4994760;28;19916;-85
2022/09/27 04:49:34;;;;;;;;;;;10.00;99.90;;;;;;4996344;28;20004;-84
2022/09/27 04:51:59;;;;;;;;;;;10.00;99.90;;;;;;4998519;28;19976;-85
2022/09/27 04:54:25;;;;;;;;;;;10.00;99.90;;;;;;4999319;28;19932;-83
2022/09/27 04:56:51;;;;;;;;;;;10.00;99.90;;;;;;5004612;28;19917;-83
2022/09/27 04:59:16;;;;;;;;;;;10.00;99.90;;;;;;5005051;28;20381;-84
2022/09/27 05:01:41;;;;;;;;;;;9.90;99.90;;;;;;5004683;28;19910;-84
2022/09/27 05:04:07;;;;;;;;;;;10.00;99.90;;;;;;5020645;28;19917;-83
2022/09/27 05:06:32;;;;;;;;;;;10.00;99.90;;;;;;5003637;28;19916;-83
2022/09/27 05:08:58;;;;;;;;;;;10.00;99.90;;;;;;5004272;28;19917;-84
2022/09/27 05:11:24;;;;;;;;;;;10.10;99.90;;;;;;5022780;28;19916;-83
2022/09/27 05:13:49;;;;;;;;;;;10.10;99.90;;;;;;5003000;28;19909;-84
2022/09/27 05:16:16;;;;;;;;;;;10.10;99.90;;;;;;5003496;28;19913;-84
2022/09/27 05:18:41;;;;;;;;;;;10.10;99.90;;;;;;5003876;28;19916;-83
2022/09/27 05:21:07;;;;;;;;;;;10.10;99.90;;;;;;5020894;28;20380;-84
2022/09/27 05:23:32;;;;;;;;;;;10.10;99.90;;;;;;5003587;28;19973;-86
2022/09/27 05:26:01;;;;;;;;;;;10.10;99.90;;;;;;5020748;28;19996;-84
2022/09/27 05:28:27;;;;;;;;;;;10.10;99.90;;;;;;5007094;28;19921;-83
2022/09/27 05:30:53;;;;;;;;;;;10.00;99.90;;;;;;5007832;28;19909;-84
2022/09/27 05:33:18;;;;;;;;;;;10.00;99.90;;;;;;5009279;28;20384;-85
2022/09/27 05:35:49;;;;;;;;;;;10.00;99.90;;;;;;5010548;28;19914;-85
2022/09/27 05:38:15;;;;;;;;;;;10.00;99.90;;;;;;5009882;28;19969;-85
2022/09/27 05:40:43;;;;;;;;;;;10.00;99.90;;;;;;5008638;28;19917;-84
2022/09/27 05:43:08;;;;;;;;;;;10.00;99.90;;;;;;5001717;28;19916;-84
2022/09/27 05:45:34;;;;;;;;;;;10.00;99.90;;;;;;5001505;28;20392;-85
2022/09/27 05:47:59;;;;;;;;;;;10.10;99.90;;;;;;5018976;28;19910;-85
2022/09/27 05:50:26;;;;;;;;;;;10.20;99.90;;;;;;5009953;28;19909;-84
2022/09/27 05:52:51;;;;;;;;;;;10.20;99.90;;;;;;5011900;28;20408;-85
2022/09/27 05:55:17;;;;;;;;;;;10.30;99.90;;;;;;5020145;28;19914;-85
2022/09/27 05:57:52;;;;;;;;;;;10.20;99.90;;;;;;4998731;28;19964;-84
2022/09/27 06:00:18;;;;;;;;;;;10.20;99.90;;;;;;4999023;28;19917;-85
2022/09/27 06:02:43;;;;;;;;;;;10.20;99.90;;;;;;4998974;28;19910;-85
2022/09/27 06:05:09;;;;;;;;;;;10.30;99.90;;;;;;4998663;28;19917;-85
2022/09/27 06:07:34;;;;;;;;;;;10.30;99.90;;;;;;4998658;28;19916;-84
2022/09/27 06:10:00;;;;;;;;;;;10.30;99.90;;;;;;4998601;28;19963;-85
2022/09/27 06:12:25;;;;;;;;;;;10.40;99.90;;;;;;5015656;28;19909;-85
2022/09/27 06:14:51;;;;;;;;;;;10.40;99.90;;;;;;4998561;28;19976;-85
2022/09/27 06:17:16;;;;;;;;;;;10.50;99.90;;;;;;4997422;28;19917;-85
2022/09/27 06:19:42;;;;;;;;;;;10.50;99.90;;;;;;4997029;28;19909;-85
2022/09/27 06:22:07;;;;;;;;;;;10.50;99.90;;;;;;4996906;28;19910;-85
2022/09/27 06:24:33;;;;;;;;;;;10.50;99.90;;;;;;4997489;28;19915;-85
2022/09/27 06:26:59;;;;;;;;;;;10.50;99.90;;;;;;4999186;28;19919;-83
2022/09/27 06:29:24;;;;;;;;;;;10.50;99.90;;;;;;5012144;28;19913;-84
2022/09/27 06:31:50;;;;;;;;;;;10.60;99.90;;;;;;5010800;28;19989;-83
2022/09/27 06:34:15;;;;;;;;;;;10.60;99.90;;;;;;5029022;28;19910;-84
2022/09/27 06:36:42;;;;;;;;;;;10.60;99.90;;;;;;5025509;28;19917;-85
2022/09/27 06:39:07;;;;;;;;;;;10.60;99.90;;;;;;4998125;28;20012;-85
2022/09/27 06:41:33;;;;;;;;;;;10.70;99.90;;;;;;5015570;28;19949;-84
2022/09/27 06:43:58;;;;;;;;;;;10.70;99.90;;;;;;5015102;28;19913;-85
2022/09/27 06:46:24;;;;;;;;;;;10.80;99.90;;;;;;5014943;28;19959;-85
2022/09/27 06:48:49;;;;;;;;;;;10.90;99.90;;;;;;4996388;28;19991;-84
2022/09/27 06:51:15;;;;;;;;;;;10.90;99.90;;;;;;4996400;28;19917;-84
2022/09/27 06:53:40;;;;;;;;;;;11.00;99.90;;;;;;4996266;28;19916;-85
2022/09/27 06:56:06;;;;;;;;;;;11.00;99.90;;;;;;4995999;28;20430;-85
2022/09/27 07:01:17;;;;;;;;;;;11.00;99.90;;;;;;5013031;28;20459;-83
2022/09/27 07:03:47;;;;;;;;;;;11.00;99.90;;;;;;4995880;28;19968;-86
2022/09/27 07:06:19;;;;;;;;;;;11.10;99.90;;;;;;4995864;28;19916;-84
2022/09/27 07:08:49;;;;;;;;;;;11.00;99.90;;;;;;4996044;28;19964;-85
2022/09/27 07:11:15;;;;;;;;;;;11.00;99.90;;;;;;4995808;28;19916;-85
2022/09/27 07:13:42;;;;;;;;;;;10.90;99.90;;;;;;4995442;28;19910;-85
2022/09/27 07:16:10;;;;;;;;;;;10.90;99.90;;;;;;4995354;28;19963;-85
2022/09/27 07:18:35;;;;;;;;;;;10.90;99.90;;;;;;5013338;28;19917;-85
2022/09/27 07:21:01;;;;;;;;;;;10.90;99.90;;;;;;4995734;28;20016;-85
2022/09/27 07:23:26;;;;;;;;;;;10.90;99.90;;;;;;4995770;28;19914;-85
2022/09/27 07:25:52;;;;;;;;;;;10.90;99.90;;;;;;4995374;28;19967;-85
2022/09/27 07:28:18;;;;;;;;;;;10.80;99.90;;;;;;5013249;28;19910;-86
2022/09/27 07:30:44;;;;;;;;;;;10.80;99.90;;;;;;4995615;28;19953;-85
2022/09/27 07:33:10;;;;;;;;;;;10.80;99.90;;;;;;4995712;28;19955;-85
2022/09/27 07:35:41;;;;;;;;;;;10.80;99.90;;;;;;5013049;28;19914;-83
2022/09/27 07:38:08;;;;;;;;;;;10.70;99.90;;;;;;4995468;28;19922;-85
2022/09/27 07:40:37;;;;;;;;;;;10.80;99.90;;;;;;4995484;28;19909;-83
2022/09/27 07:43:03;;;;;;;;;;;10.80;99.90;;;;;;5013204;28;19913;-85
2022/09/27 07:45:30;;;;;;;;;;;10.80;99.90;;;;;;4995443;28;19910;-85
2022/09/27 07:47:55;;;;;;;;;;;10.90;99.90;;;;;;5008949;28;19914;-84
2022/09/27 07:50:21;;;;;;;;;;;10.80;99.90;;;;;;4994004;28;19914;-83
2022/09/27 07:52:49;;;;;;;;;;;10.70;99.90;;;;;;4992674;28;19921;-84
2022/09/27 07:55:14;;;;;;;;;;;10.80;99.90;;;;;;5008655;28;19917;-84
2022/09/27 07:57:40;;;;;;;;;;;10.80;99.90;;;;;;4993060;28;20382;-84
2022/09/27 08:00:07;;;;;;;;;;;10.80;99.90;;;;;;4993094;28;19910;-85
2022/09/27 08:02:32;;;;;;;;;;;10.90;99.90;;;;;;5007970;28;19910;-84
2022/09/27 08:04:58;;;;;;;;;;;11.00;99.90;;;;;;4991631;28;20004;-84
2022/09/27 08:07:24;;;;;;;;;;;11.00;99.90;;;;;;5007271;28;20457;-85
2022/09/27 08:09:49;;;;;;;;;;;11.10;99.90;;;;;;5008071;28;19910;-85
2022/09/27 08:12:15;;;;;;;;;;;11.20;99.90;;;;;;4991181;28;20289;-82
2022/09/27 08:14:41;;;;;;;;;;;11.30;99.90;;;;;;5008405;28;19925;-85
2022/09/27 08:17:09;;;;;;;;;;;11.40;99.90;;;;;;4991574;28;19957;-85
2022/09/27 08:19:35;;;;;;;;;;;11.50;99.90;;;;;;5010004;28;19932;-84
2022/09/27 08:22:00;;;;;;;;;;;11.70;99.90;;;;;;4993224;28;19909;-85
2022/09/27 08:24:26;;;;;;;;;;;11.80;99.90;;;;;;4995491;28;19937;-84
2022/09/27 08:26:51;;;;;;;;;;;12.00;99.90;;;;;;4996895;28;19917;-82
2022/09/27 08:29:17;;;;;;;;;;;12.10;99.90;;;;;;4997186;28;20325;-84
2022/09/27 08:31:42;;;;;;;;;;;12.20;99.90;;;;;;4996930;28;19910;-85
2022/09/27 08:34:08;;;;;;;;;;;12.20;99.90;;;;;;4997623;28;20373;-83
2022/09/27 08:36:36;;;;;;;;;;;12.30;99.90;;;;;;4997752;28;19914;-86
2022/09/27 08:39:02;;;;;;;;;;;12.40;99.90;;;;;;4999501;28;19910;-84
2022/09/27 08:41:37;;;;;;;;;;;12.60;99.90;;;;;;5013395;28;19910;-85
2022/09/27 08:44:22;;;;;;;;;;;12.80;99.90;;;;;;5013542;28;19910;-85
2022/09/27 08:46:54;;;;;;;;;;;12.90;99.90;;;;;;4997332;28;19910;-85
2022/09/27 08:49:30;;;;;;;;;;;13.00;99.90;;;;;;4997090;28;19916;-84
2022/09/27 08:51:57;;;;;;;;;;;13.00;99.90;;;;;;5013499;28;19961;-85
2022/09/27 08:54:24;;;;;;;;;;;13.20;99.90;;;;;;5014278;28;19910;-84
2022/09/27 08:56:51;;;;;;;;;;;13.40;99.90;;;;;;5014049;28;20373;-85
2022/09/27 08:59:22;;;;;;;;;;;13.30;99.90;;;;;;5013260;28;19957;-86
2022/09/27 09:01:49;;;;;;;;;;;13.30;99.90;;;;;;5013921;28;19910;-85
2022/09/27 09:04:17;;;;;;;;;;;13.20;99.90;;;;;;5013446;28;19917;-83
2022/09/27 09:06:43;;;;;;;;;;;13.00;99.90;;;;;;5025005;28;19960;-86
2022/09/27 09:09:08;;;;;;;;;;;13.00;99.90;;;;;;5014713;28;19945;-85
2022/09/27 09:14:42;;;;;;;;;;;12.90;99.90;;;;;;5018999;28;20419;-85
2022/09/27 09:17:07;;;;;;;;;;;12.80;99.90;;;;;;5011187;28;19928;-85
2022/09/27 09:19:46;;;;;;;;;;;12.70;99.90;;;;;;5031616;28;19914;-84
2022/09/27 09:22:27;;;;;;;;;;;12.70;99.90;;;;;;5014515;28;19913;-86
2022/09/27 09:24:53;;;;;;;;;;;12.80;99.90;;;;;;5017391;28;20004;-84
2022/09/27 09:27:21;;;;;;;;;;;12.80;99.90;;;;;;5031902;28;19948;-87
2022/09/27 09:29:49;;;;;;;;;;;12.80;99.90;;;;;;5032300;28;20404;-82
2022/09/27 09:32:33;;;;;;;;;;;12.80;99.90;;;;;;5031990;28;20304;-84
2022/09/27 09:35:20;;;;;;;;;;;12.80;99.90;;;;;;5014509;28;20278;-85
2022/09/27 09:37:48;;;;;;;;;;;12.80;99.90;;;;;;5013690;28;19917;-85
2022/09/27 09:40:16;;;;;;;;;;;13.00;99.90;;;;;;5015533;28;19949;-86
2022/09/27 09:43:02;;;;;;;;;;;13.00;99.90;;;;;;5030187;28;19909;-85
2022/09/27 09:45:33;;;;;;;;;;;13.00;99.90;;;;;;4994782;28;19910;-82
2022/09/27 09:48:05;;;;;;;;;;;13.10;99.90;;;;;;5046970;28;20451;-86
2022/09/27 09:50:35;;;;;;;;;;;13.20;99.90;;;;;;5014843;28;19909;-86
2022/09/27 09:53:11;;;;;;;;;;;13.30;99.90;;;;;;5014326;28;19920;-84
2022/09/27 09:55:38;;;;;;;;;;;13.30;99.90;;;;;;5013475;28;19913;-83
2022/09/27 09:58:24;;;;;;;;;;;13.10;99.90;;;;;;5021097;28;19965;-82
2022/09/27 10:00:50;;;;;;;;;;;13.20;99.90;;;;;;4996173;28;19913;-83
2022/09/27 10:03:16;;;;;;;;;;;13.20;99.90;;;;;;4996718;28;19936;-82
2022/09/27 10:05:43;;;;;;;;;;;13.30;99.90;;;;;;4996108;28;19914;-84
2022/09/27 10:08:11;;;;;;;;;;;13.40;99.90;;;;;;5008988;28;19916;-83
2022/09/27 10:10:37;;;;;;;;;;;13.50;99.90;;;;;;5022107;28;19920;-84
2022/09/27 10:13:03;;;;;;;;;;;13.60;99.90;;;;;;5049094;28;20012;-84
2022/09/27 10:15:29;;;;;;;;;;;13.60;99.90;;;;;;5015896;28;19952;-84
2022/09/27 10:17:56;;;;;;;;;;;13.70;99.90;;;;;;5021301;28;19910;-87
2022/09/27 10:20:34;;;;;;;;;;;13.80;99.90;;;;;;5013938;28;19949;-85
2022/09/27 10:23:03;;;;;;;;;;;13.90;99.90;;;;;;5014746;28;19959;-88
2022/09/27 10:25:55;;;;;;;;;;;13.80;99.90;;;;;;4999868;28;20016;-85
2022/09/27 10:28:37;;;;;;;;;;;13.60;99.90;;;;;;4984060;28;19910;-88
2022/09/27 10:31:07;;;;;;;;;;;13.50;99.90;;;;;;4995018;28;19916;-87
2022/09/27 10:33:34;;;;;;;;;;;13.40;99.90;;;;;;4993869;28;19917;-87
2022/09/27 10:36:00;;;;;;;;;;;13.20;99.90;;;;;;5061906;23;20308;-83
2022/09/27 10:38:27;;;;;;;;;;;13.10;99.90;;;;;;5012678;28;20008;-87
2022/09/27 10:40:57;;;;;;;;;;;13.00;99.90;;;;;;5012725;28;19917;-85
2022/09/27 10:43:28;;;;;;;;;;;12.80;99.90;;;;;;5013023;28;20012;-85
2022/09/27 10:46:11;;;;;;;;;;;12.70;99.90;;;;;;5012633;28;19932;-82
2022/09/27 10:48:38;;;;;;;;;;;12.60;99.90;;;;;;5012438;28;19946;-83
2022/09/27 10:51:05;;;;;;;;;;;12.50;99.90;;;;;;5008872;28;20607;-84
2022/09/27 10:53:32;;;;;;;;;;;12.30;99.90;;;;;;5012714;28;19909;-83
2022/09/27 10:55:58;;;;;;;;;;;12.30;99.90;;;;;;5011688;28;19918;-85
2022/09/27 10:58:25;;;;;;;;;;;12.40;99.90;;;;;;5012428;28;19964;-87
2022/09/27 11:00:55;;;;;;;;;;;12.40;99.90;;;;;;5011195;28;20361;-84
2022/09/27 11:03:21;;;;;;;;;;;12.30;99.90;;;;;;5012437;28;19917;-86
2022/09/27 11:05:46;;;;;;;;;;;12.10;99.90;;;;;;5011496;28;19921;-86
2022/09/27 11:08:18;;;;;;;;;;;12.00;99.90;;;;;;5012290;28;19960;-87
2022/09/27 11:10:44;;;;;;;;;;;11.90;99.90;;;;;;5012970;28;19913;-88
2022/09/27 11:13:14;;;;;;;;;;;12.00;99.90;;;;;;5007202;28;19933;-87
2022/09/27 11:15:40;;;;;;;;;;;12.10;99.90;;;;;;5009026;28;20000;-86
2022/09/27 11:18:14;;;;;;;;;;;12.30;99.90;;;;;;5009420;28;20013;-87
2022/09/27 11:20:47;;;;;;;;;;;12.50;99.90;;;;;;5010173;28;20370;-87
2022/09/27 11:23:36;;;;;;;;;;;12.60;99.90;;;;;;5009300;28;20259;-87
2022/09/27 11:26:20;;;;;;;;;;;12.60;99.90;;;;;;4993503;28;19910;-86
2022/09/27 11:29:12;;;;;;;;;;;12.70;99.90;;;;;;5009726;28;19940;-86
2022/09/27 11:31:56;;;;;;;;;;;12.70;99.90;;;;;;4993620;28;20543;-86
2022/09/27 11:34:48;;;;;;;;;;;12.80;99.90;;;;;;5019635;28;19924;-85
2022/09/27 11:37:19;;;;;;;;;;;12.70;99.90;;;;;;5007453;28;19914;-83
2022/09/27 11:40:00;;;;;;;;;;;12.60;99.90;;;;;;5013423;28;20285;-85
2022/09/27 11:42:33;;;;;;;;;;;12.50;99.90;;;;;;5027945;28;19979;-84
2022/09/27 11:44:58;;;;;;;;;;;12.30;99.90;;;;;;5012832;28;19961;-86
2022/09/27 11:47:41;;;;;;;;;;;12.20;99.90;;;;;;5011046;28;19917;-85
2022/09/27 11:50:14;;;;;;;;;;;12.20;99.90;;;;;;5010990;28;19921;-87
2022/09/27 11:52:40;;;;;;;;;;;12.10;99.90;;;;;;5011768;28;20001;-85
2022/09/27 11:55:17;;;;;;;;;;;12.10;99.90;;;;;;5011268;28;19918;-82
2022/09/27 11:57:53;;;;;;;;;;;12.00;99.90;;;;;;5011411;28;19917;-80
2022/09/27 12:00:20;;;;;;;;;;;12.20;99.90;;;;;;5017833;28;19917;-80
2022/09/27 12:02:48;;;;;;;;;;;12.30;99.90;;;;;;5017922;28;19913;-81
2022/09/27 12:05:31;;;;;;;;;;;12.40;99.90;;;;;;5017793;28;19953;-83
2022/09/27 12:07:56;;;;;;;;;;;12.60;99.90;;;;;;5019516;28;19917;-83
2022/09/27 12:10:22;;;;;;;;;;;12.80;99.90;;;;;;5018741;28;20008;-82
2022/09/27 12:12:52;;;;;;;;;;;13.00;99.90;;;;;;5019518;28;19909;-82
2022/09/27 12:15:30;;;;;;;;;;;13.20;99.90;;;;;;5016570;28;20368;-82
2022/09/27 12:18:04;;;;;;;;;;;13.30;99.90;;;;;;5014954;28;20029;-83
2022/09/27 12:20:32;;;;;;;;;;;13.20;99.90;;;;;;5017996;28;19993;-83
2022/09/27 12:22:57;;;;;;;;;;;13.20;99.90;;;;;;5019915;28;19910;-83
2022/09/27 12:25:25;;;;;;;;;;;13.30;99.90;;;;;;5034933;28;19914;-81
2022/09/27 12:27:57;;;;;;;;;;;13.30;99.90;;;;;;5017333;28;20007;-84
2022/09/27 12:30:22;;;;;;;;;;;13.40;99.90;;;;;;5019021;28;19964;-83
2022/09/27 12:32:53;;;;;;;;;;;13.30;99.90;;;;;;5018667;28;19948;-84
2022/09/27 12:35:22;;;;;;;;;;;13.20;99.90;;;;;;5018864;28;19917;-83
2022/09/27 12:37:50;;;;;;;;;;;13.20;99.90;;;;;;5018812;28;19921;-84
2022/09/27 12:40:22;;;;;;;;;;;13.20;99.90;;;;;;5019284;28;19917;-83
2022/09/27 12:42:54;;;;;;;;;;;13.10;99.90;;;;;;5018136;28;20273;-83
2022/09/27 12:45:26;;;;;;;;;;;13.00;99.90;;;;;;5017723;28;19916;-83
2022/09/27 12:47:52;;;;;;;;;;;12.80;99.90;;;;;;5016827;28;20018;-83
2022/09/27 12:50:23;;;;;;;;;;;12.50;99.90;;;;;;5034074;28;20372;-82
2022/09/27 12:52:55;;;;;;;;;;;12.50;99.90;;;;;;5017838;28;20261;-84
2022/09/27 12:55:40;;;;;;;;;;;12.40;99.90;;;;;;5017481;28;20009;-85
2022/09/27 12:58:18;;;;;;;;;;;12.30;99.90;;;;;;5034245;28;19920;-85
2022/09/27 13:01:02;;;;;;;;;;;12.30;99.90;;;;;;5017473;28;20327;-85
2022/09/27 13:03:47;;;;;;;;;;;12.30;99.90;;;;;;5034234;28;19996;-84
2022/09/27 13:06:28;;;;;;;;;;;12.40;99.90;;;;;;5018363;28;19910;-83
2022/09/27 13:09:10;;;;;;;;;;;12.30;99.90;;;;;;5017547;28;20376;-84
2022/09/27 13:11:35;;;;;;;;;;;12.40;99.90;;;;;;5013901;28;19909;-84
2022/09/27 13:14:02;;;;;;;;;;;12.50;99.90;;;;;;5030892;28;19909;-84
2022/09/27 13:16:27;;;;;;;;;;;12.50;99.90;;;;;;5015894;28;19920;-82
2022/09/27 13:19:01;;;;;;;;;;;12.50;99.90;;;;;;5015863;28;19909;-84
2022/09/27 13:21:48;;;;;;;;;;;12.60;99.90;;;;;;5015719;28;20257;-82
2022/09/27 13:24:31;;;;;;;;;;;12.70;99.90;;;;;;5031787;28;19910;-84
2022/09/27 13:26:59;;;;;;;;;;;13.00;99.90;;;;;;5023269;28;19913;-82
2022/09/27 13:29:28;;;;;;;;;;;13.10;99.90;;;;;;5016516;28;19910;-84
2022/09/27 13:31:54;;;;;;;;;;;13.20;99.90;;;;;;5017020;28;19909;-83
2022/09/27 13:34:38;;;;;;;;;;;13.10;99.90;;;;;;5015807;28;20288;-83
2022/09/27 13:37:35;;;;;;;;;;;13.10;99.90;;;;;;5014241;28;19920;-84
2022/09/27 13:40:19;;;;;;;;;;;13.20;99.90;;;;;;5015337;28;19917;-87
2022/09/27 13:42:52;;;;;;;;;;;13.30;99.90;;;;;;5032510;28;19933;-87
2022/09/27 13:45:25;;;;;;;;;;;13.40;99.90;;;;;;5015775;28;19909;-86
2022/09/27 13:47:50;;;;;;;;;;;13.50;99.90;;;;;;5010024;28;19910;-83
2022/09/27 13:50:35;;;;;;;;;;;13.60;99.90;;;;;;5019590;28;20313;-86
2022/09/27 13:53:06;;;;;;;;;;;13.70;99.90;;;;;;5012136;28;20281;-88
2022/09/27 13:55:39;;;;;;;;;;;13.60;99.90;;;;;;5010774;28;19956;-87
2022/09/27 13:58:15;;;;;;;;;;;13.60;99.90;;;;;;4995178;28;19910;-87
2022/09/27 14:00:44;;;;;;;;;;;13.50;99.90;;;;;;4995717;28;19909;-88
2022/09/27 14:03:10;;;;;;;;;;;13.40;99.90;;;;;;4995446;28;19914;-87
2022/09/27 14:05:40;;;;;;;;;;;13.30;99.90;;;;;;5009662;28;19992;-87
2022/09/27 14:08:10;;;;;;;;;;;13.20;99.90;;;;;;5029385;28;19917;-88
2022/09/27 14:10:43;;;;;;;;;;;13.10;99.90;;;;;;4996905;28;19914;-88
2022/09/27 14:13:12;;;;;;;;;;;13.10;99.90;;;;;;5013654;28;19925;-85
2022/09/27 14:15:38;;;;;;;;;;;13.20;99.90;;;;;;5014059;28;20331;-87
2022/09/27 14:18:04;;;;;;;;;;;13.10;99.90;;;;;;5014978;28;20000;-88
2022/09/27 14:20:51;;;;;;;;;;;13.20;99.90;;;;;;5013398;28;19916;-86
2022/09/27 14:23:23;;;;;;;;;;;13.30;99.90;;;;;;5011636;28;20380;-88
2022/09/27 14:25:50;;;;;;;;;;;13.30;99.90;;;;;;5014016;28;19917;-87
2022/09/27 14:28:23;;;;;;;;;;;13.30;99.90;;;;;;5014580;28;19909;-89
2022/09/27 14:31:04;;;;;;;;;;;13.30;99.90;;;;;;5014487;28;19960;-87
2022/09/27 14:33:30;;;;;;;;;;;13.30;99.90;;;;;;5013075;28;19929;-86
2022/09/27 14:38:40;;;;;;;;;;;13.40;99.90;;;;;;5014384;28;20280;-86
2022/09/27 14:41:07;;;;;;;;;;;13.50;99.90;;;;;;5012547;28;19914;-86